Time;durP1;ratioP1;P1;durP2;ratioP2;P2;SDS_P1;SDS_P2;PMS_P1;PMS_P2;Temp;Humidity;BMP_temperature;BMP_pressure;BME280_temperature;BME280_humidity;BME280_pressure;Samples;Min_cycle;Max_cycle;Signal;HPM_P1;HPM_P2
2022/11/02 00:29:45;;;;;;;4.10;1.30;;;;;;;;;;5688324;23;20482;-78
2022/11/02 00:32:11;;;;;;;5.57;0.90;;;8.20;96.30;;;;;;5015573;28;20535;-78
2022/11/02 00:34:36;;;;;;;2.53;1.23;;;8.40;96.30;;;;;;5011794;28;20188;-78
2022/11/02 00:37:02;;;;;;;3.23;1.00;;;8.20;96.30;;;;;;5012501;28;20207;-78
2022/11/02 00:39:27;;;;;;;5.23;1.33;;;8.30;96.30;;;;;;5013027;28;20222;-78
2022/11/02 00:41:53;;;;;;;6.10;1.83;;;8.60;96.30;;;;;;5013639;28;20201;-78
2022/11/02 00:44:18;;;;;;;5.20;1.00;;;8.60;96.30;;;;;;5011809;28;20197;-78
2022/11/02 00:46:44;;;;;;;4.10;1.10;;;8.70;96.30;;;;;;5012717;28;20191;-78
2022/11/02 00:49:10;;;;;;;1.73;1.00;;;;;;;;;;5011961;28;20647;-78
2022/11/02 05:00:58;;;;;;;6.70;2.17;;;;;;;;;;5698473;23;20886;-77
2022/11/02 05:03:24;;;;;;;10.40;1.17;;;;;;;;;;4952908;29;20520;-76
2022/11/02 05:05:54;;;;;;;6.40;1.40;;;8.20;96.30;;;;;;4954327;28;20846;-77
2022/11/02 05:08:19;;;;;;;9.00;4.20;;;8.10;96.30;;;;;;4953135;29;20431;-77
2022/11/02 05:10:45;;;;;;;15.17;5.40;;;8.10;96.30;;;;;;4953875;28;20431;-78
2022/11/02 05:13:10;;;;;;;8.67;1.80;;;8.20;96.30;;;;;;4954518;29;20640;-77
2022/11/02 05:15:38;;;;;;;6.10;1.20;;;8.00;96.30;;;;;;4955084;28;20242;-77
2022/11/02 05:18:03;;;;;;;12.23;1.57;;;8.00;96.30;;;;;;4954625;28;20167;-77
2022/11/02 05:30:06;;;;;;;;;;;;;;;;;;;;;
2022/11/02 05:39:17;;;;;;;3.73;0.93;;;;;;;;;;4936428;29;20427;-77
2022/11/02 05:41:43;;;;;;;8.63;1.97;;;;;;;;;;4938815;29;20419;-77
2022/11/02 05:44:08;;;;;;;6.70;2.10;;;8.50;96.30;;;;;;4938740;29;20862;-77
2022/11/02 05:46:34;;;;;;;7.73;1.70;;;8.60;96.30;;;;;;4938732;29;20631;-77
2022/11/02 05:49:00;;;;;;;6.03;1.73;;;;;;;;;;4907310;28;20542;-78
2022/11/02 05:51:25;;;;;;;20.90;10.30;;;8.70;96.30;;;;;;4837748;29;20279;-77
2022/11/02 05:53:51;;;;;;;19.10;5.67;;;8.60;96.30;;;;;;4900666;29;20173;-77
2022/11/02 05:56:17;;;;;;;7.80;2.90;;;;;;;;;;4900872;29;20188;-78
2022/11/02 05:58:42;;;;;;;8.17;4.17;;;8.50;96.30;;;;;;4900999;29;20184;-78
2022/11/02 06:01:09;;;;;;;9.97;2.47;;;8.50;96.30;;;;;;4898992;29;20941;-78
2022/11/02 06:03:35;;;;;;;4.60;2.33;;;8.60;96.30;;;;;;4900514;29;20314;-78
2022/11/02 06:06:03;;;;;;;16.47;7.50;;;8.80;96.30;;;;;;4897034;29;20432;-78
2022/11/02 06:08:37;;;;;;;21.87;12.40;;;8.80;96.30;;;;;;4901549;29;20424;-78
2022/11/02 06:11:07;;;;;;;5.90;1.63;;;8.80;96.30;;;;;;4907569;29;20445;-78
2022/11/02 06:13:33;;;;;;;46.57;25.57;;;8.90;96.30;;;;;;4905720;29;20440;-78
2022/11/02 06:16:01;;;;;;;14.57;8.00;;;9.00;96.30;;;;;;4908318;29;20413;-78
2022/11/02 06:18:27;;;;;;;48.33;25.67;;;9.10;96.30;;;;;;4901562;29;20685;-77
2022/11/02 06:20:52;;;;;;;45.97;21.20;;;9.40;96.30;;;;;;4898437;29;21005;-78
2022/11/02 06:23:18;;;;;;;7.80;2.00;;;9.80;96.30;;;;;;4898468;29;20502;-78
2022/11/02 06:25:55;;;;;;;43.53;18.20;;;10.20;96.30;;;;;;4900061;29;20183;-78
2022/11/02 06:28:21;;;;;;;10.80;3.17;;;10.70;96.30;;;;;;4898669;29;20176;-78
2022/11/02 06:30:48;;;;;;;8.77;2.70;;;11.00;96.30;;;;;;4900098;29;20488;-78
2022/11/02 06:33:14;;;;;;;29.87;12.77;;;11.10;96.30;;;;;;4899941;29;20523;-79
2022/11/02 06:35:40;;;;;;;13.60;3.67;;;;;;;;;;4899229;29;20413;-78
2022/11/02 06:38:05;;;;;;;26.80;11.80;;;11.00;96.30;;;;;;4898891;29;20890;-79
2022/11/02 06:40:31;;;;;;;9.47;4.50;;;11.40;96.30;;;;;;4899265;29;20489;-78
2022/11/02 06:42:57;;;;;;;27.80;14.57;;;11.30;96.30;;;;;;4899348;29;20181;-78
2022/11/02 06:45:24;;;;;;;7.47;2.97;;;10.90;96.30;;;;;;4897501;29;20222;-78
2022/11/02 06:47:49;;;;;;;7.60;3.67;;;10.50;96.30;;;;;;4898337;29;20421;-77
2022/11/02 06:50:15;;;;;;;5.60;1.47;;;10.20;96.30;;;;;;4899718;29;20482;-77
2022/11/02 06:52:43;;;;;;;16.30;3.93;;;10.00;96.30;;;;;;4898967;29;20181;-77
2022/11/02 06:55:09;;;;;;;14.33;3.00;;;9.70;96.30;;;;;;4899654;29;20592;-78
2022/11/02 06:57:35;;;;;;;16.17;4.37;;;9.60;96.30;;;;;;4899119;29;20410;-78
2022/11/02 07:00:03;;;;;;;10.43;2.50;;;9.50;96.30;;;;;;4913099;29;20464;-77
2022/11/02 07:02:29;;;;;;;6.40;1.83;;;9.40;96.30;;;;;;4913867;29;20473;-78
2022/11/02 07:04:55;;;;;;;3.67;1.50;;;9.40;96.30;;;;;;4913926;29;20457;-78
2022/11/02 07:07:21;;;;;;;10.13;3.07;;;9.30;96.30;;;;;;4898847;29;20625;-78
2022/11/02 07:09:47;;;;;;;10.23;2.40;;;9.30;96.30;;;;;;4913865;29;20185;-78
2022/11/02 07:12:13;;;;;;;13.40;4.00;;;;;;;;;;4914096;29;20661;-79
2022/11/02 07:14:38;;;;;;;24.53;7.23;;;9.20;96.30;;;;;;4899332;29;20188;-79
2022/11/02 07:17:04;;;;;;;9.83;2.70;;;9.20;96.30;;;;;;4898728;29;20176;-77
2022/11/02 07:19:30;;;;;;;8.73;1.43;;;9.40;96.30;;;;;;4899228;29;20574;-77
2022/11/02 07:21:55;;;;;;;38.53;19.77;;;;;;;;;;4899204;29;20248;-78
2022/11/02 07:24:21;;;;;;;6.67;1.90;;;9.40;96.30;;;;;;4899083;29;20213;-78
2022/11/02 07:26:49;;;;;;;11.97;4.60;;;9.50;96.30;;;;;;4898699;29;20185;-77
2022/11/02 07:29:18;;;;;;;23.90;11.27;;;9.70;96.30;;;;;;4913729;29;20181;-77
2022/11/02 07:31:44;;;;;;;6.03;1.60;;;9.80;96.30;;;;;;4913362;29;20445;-77
2022/11/02 07:34:10;;;;;;;13.87;2.10;;;9.90;96.30;;;;;;4913398;29;20429;-78
2022/11/02 07:36:36;;;;;;;7.77;2.70;;;9.90;96.30;;;;;;4898774;29;20421;-78
2022/11/02 07:39:02;;;;;;;71.23;27.00;;;10.10;96.30;;;;;;4898445;29;20508;-78
2022/11/02 07:41:28;;;;;;;25.10;3.97;;;10.20;96.30;;;;;;4913186;29;20205;-78
2022/11/02 07:43:53;;;;;;;18.50;8.27;;;10.30;96.30;;;;;;4898700;29;20465;-79
2022/11/02 07:46:19;;;;;;;10.73;2.27;;;10.40;96.30;;;;;;4898654;29;20205;-77
2022/11/02 07:48:46;;;;;;;8.87;2.37;;;10.50;96.30;;;;;;4898186;29;20181;-78
2022/11/02 07:51:12;;;;;;;6.37;1.37;;;10.50;96.30;;;;;;4913013;29;20205;-78
2022/11/02 07:53:38;;;;;;;7.73;1.80;;;10.50;96.30;;;;;;4860613;29;20505;-79
2022/11/02 07:56:04;;;;;;;12.80;2.10;;;10.60;96.30;;;;;;4879858;29;20678;-77
2022/11/02 07:58:30;;;;;;;7.63;2.13;;;;;;;;;;4879364;29;20261;-78
2022/11/02 08:00:58;;;;;;;7.50;2.00;;;10.50;96.30;;;;;;4879636;29;20437;-78
2022/11/02 08:03:24;;;;;;;4.07;1.50;;;10.60;96.30;;;;;;4877650;29;20517;-77
2022/11/02 08:05:49;;;;;;;10.60;2.40;;;10.70;96.30;;;;;;4879723;29;20485;-77
2022/11/02 08:08:17;;;;;;;6.97;1.60;;;10.80;96.30;;;;;;4879256;29;20425;-77
2022/11/02 08:10:44;;;;;;;9.93;1.60;;;10.90;96.30;;;;;;4879767;29;20276;-78
2022/11/02 08:13:14;;;;;;;9.97;1.60;;;10.90;96.30;;;;;;4879660;29;20421;-77
2022/11/02 08:15:40;;;;;;;6.40;1.67;;;10.90;96.30;;;;;;4879987;29;20493;-77
2022/11/02 08:18:11;;;;;;;8.77;1.33;;;10.90;96.30;;;;;;4878909;29;20505;-78
2022/11/02 08:20:37;;;;;;;6.20;1.80;;;;;;;;;;4878309;29;20209;-77
2022/11/02 08:23:03;;;;;;;6.23;2.10;;;11.00;96.30;;;;;;4879461;29;20422;-77
2022/11/02 08:25:29;;;;;;;7.70;2.07;;;11.10;96.30;;;;;;4879384;29;20454;-78
2022/11/02 08:27:58;;;;;;;7.73;1.70;;;11.10;96.30;;;;;;4877694;29;20422;-77
2022/11/02 08:30:25;;;;;;;9.90;3.47;;;11.10;96.30;;;;;;4878026;29;20177;-78
2022/11/02 08:32:51;;;;;;;5.60;1.50;;;;;;;;;;4878317;29;20478;-79
2022/11/02 08:35:17;;;;;;;23.40;2.07;;;11.20;96.30;;;;;;4878200;29;20418;-79
2022/11/02 08:37:42;;;;;;;10.50;2.10;;;11.20;96.30;;;;;;4877967;29;20190;-79
2022/11/02 08:40:09;;;;;;;7.47;2.10;;;11.20;96.30;;;;;;4879179;29;20177;-79
2022/11/02 08:42:37;;;;;;;7.37;2.20;;;11.30;96.30;;;;;;4878449;29;20557;-79
2022/11/02 08:45:04;;;;;;;9.70;1.67;;;11.40;96.30;;;;;;4877939;29;20493;-79
2022/11/02 08:47:30;;;;;;;4.67;2.10;;;11.50;96.30;;;;;;4879067;29;20522;-79
2022/11/02 08:49:55;;;;;;;8.10;1.40;;;11.50;96.30;;;;;;4878129;29;20704;-79
2022/11/02 08:52:21;;;;;;;10.67;2.30;;;11.50;96.30;;;;;;4879473;29;20268;-79
2022/11/02 08:54:46;;;;;;;7.07;1.17;;;11.60;96.30;;;;;;4878281;29;20196;-79
2022/11/02 08:57:12;;;;;;;9.40;1.73;;;11.70;96.30;;;;;;4878976;29;20181;-79
2022/11/02 08:59:37;;;;;;;5.73;1.30;;;11.70;96.30;;;;;;4877701;29;20186;-79
2022/11/02 09:02:03;;;;;;;7.43;1.70;;;11.80;96.30;;;;;;4878766;29;20197;-79
2022/11/02 09:04:28;;;;;;;8.17;1.93;;;12.00;96.30;;;;;;4879099;29;20205;-79
2022/11/02 09:06:54;;;;;;;6.23;1.20;;;12.10;96.30;;;;;;4878785;29;20210;-79
2022/11/02 09:09:19;;;;;;;9.83;1.40;;;12.20;96.30;;;;;;4879084;29;20181;-79
2022/11/02 09:11:48;;;;;;;8.00;1.80;;;12.40;96.30;;;;;;4877854;29;20198;-79
2022/11/02 09:14:13;;;;;;;7.77;1.70;;;12.50;96.30;;;;;;4878688;29;20185;-79
2022/11/02 09:16:39;;;;;;;4.47;1.40;;;12.30;96.30;;;;;;4878794;29;20425;-79
2022/11/02 09:19:05;;;;;;;6.13;1.50;;;;;;;;;;4878909;29;20182;-79
2022/11/02 09:21:30;;;;;;;4.73;1.47;;;12.30;96.30;;;;;;4878805;29;20201;-79
2022/11/02 09:23:56;;;;;;;10.23;1.50;;;12.20;96.30;;;;;;4878794;29;20272;-79
2022/11/02 09:26:22;;;;;;;7.57;1.97;;;12.10;96.30;;;;;;4877578;29;20211;-79
2022/11/02 09:28:48;;;;;;;9.43;1.70;;;12.00;96.30;;;;;;4877008;29;20516;-79
2022/11/02 09:31:14;;;;;;;5.30;1.50;;;;;;;;;;4878684;29;20610;-79
2022/11/02 09:33:39;;;;;;;3.10;1.17;;;12.10;96.30;;;;;;4878904;29;20186;-79
2022/11/02 09:36:06;;;;;;;6.70;1.47;;;12.10;96.30;;;;;;4877503;29;20189;-79
2022/11/02 09:38:32;;;;;;;6.60;1.77;;;12.10;96.30;;;;;;4876749;29;20212;-79
2022/11/02 09:40:57;;;;;;;5.27;1.03;;;12.00;96.30;;;;;;4878739;29;20965;-81
2022/11/02 09:43:52;;;;;;;5.10;1.30;;;12.00;96.30;;;;;;4878414;29;20625;-79
2022/11/02 09:46:25;;;;;;;9.43;1.53;;;12.10;96.30;;;;;;4874069;29;20197;-79
2022/11/02 09:48:55;;;;;;;5.23;1.40;;;12.10;96.30;;;;;;4877948;29;20402;-79
2022/11/02 09:51:26;;;;;;;3.33;1.17;;;12.20;96.30;;;;;;4878366;29;20445;-79
2022/11/02 09:54:07;;;;;;;5.83;1.33;;;12.10;96.30;;;;;;4877868;29;20425;-80
2022/11/02 09:56:34;;;;;;;9.63;1.33;;;12.20;96.30;;;;;;4877803;29;20508;-80
2022/11/02 09:59:03;;;;;;;6.83;2.97;;;12.30;96.30;;;;;;4878428;29;20425;-80
2022/11/02 10:01:40;;;;;;;7.33;2.10;;;12.40;96.30;;;;;;4877166;29;20500;-80
2022/11/02 10:04:42;;;;;;;2.40;1.10;;;12.70;96.30;;;;;;4877494;29;20969;-80
2022/11/02 10:07:24;;;;;;;4.97;1.20;;;12.70;96.30;;;;;;4878404;29;21096;-80
2022/11/02 10:10:12;;;;;;;5.43;1.17;;;13.00;96.30;;;;;;4877517;29;20402;-80
2022/11/02 10:12:45;;;;;;;6.03;2.07;;;13.30;96.30;;;;;;4878061;29;20470;-80
2022/11/02 10:15:14;;;;;;;6.27;1.37;;;13.50;96.30;;;;;;4878680;29;20403;-80
2022/11/02 10:17:41;;;;;;;4.73;1.60;;;13.90;96.30;;;;;;4878241;29;20426;-80
2022/11/02 10:20:41;;;;;;;8.33;1.43;;;13.90;96.30;;;;;;4877720;29;20434;-80
2022/11/02 10:23:10;;;;;;;5.07;1.00;;;14.60;96.30;;;;;;4874615;29;20441;-79
2022/11/02 10:25:36;;;;;;;8.63;1.80;;;14.30;96.30;;;;;;4877149;29;20423;-79
2022/11/02 10:28:28;;;;;;;3.27;1.20;;;14.40;96.30;;;;;;4879618;29;20498;-80
2022/11/02 10:30:53;;;;;;;3.70;1.20;;;14.80;96.30;;;;;;4862939;29;20210;-80
2022/11/02 10:33:25;;;;;;;3.80;1.20;;;15.10;96.30;;;;;;4876905;29;20487;-80
2022/11/02 10:36:06;;;;;;;5.60;1.60;;;15.30;96.30;;;;;;4876639;29;20166;-79
2022/11/02 10:39:01;;;;;;;5.03;1.30;;;15.30;96.30;;;;;;4860967;29;20835;-79
2022/11/02 10:41:56;;;;;;;7.67;1.90;;;14.50;96.30;;;;;;4876254;29;20443;-79
2022/11/02 10:44:32;;;;;;;3.50;1.33;;;14.00;96.30;;;;;;4862114;29;20527;-79
2022/11/02 10:47:19;;;;;;;4.90;1.30;;;13.70;96.30;;;;;;4858510;29;20774;-79
2022/11/02 10:49:53;;;;;;;4.33;1.37;;;13.40;96.30;;;;;;4862550;29;20415;-79
2022/11/02 10:52:19;;;;;;;3.97;1.63;;;13.40;96.30;;;;;;4861771;29;20443;-79
2022/11/02 10:54:44;;;;;;;9.60;2.20;;;13.10;96.30;;;;;;4862099;29;20426;-79
2022/11/02 10:57:17;;;;;;;6.43;1.83;;;13.00;96.30;;;;;;4861722;29;20287;-79
2022/11/02 10:59:43;;;;;;;9.50;1.57;;;13.50;96.30;;;;;;4875878;29;20269;-80
2022/11/02 11:02:13;;;;;;;5.00;1.30;;;13.80;96.30;;;;;;4878650;29;21026;-78
2022/11/02 11:04:40;;;;;;;10.00;1.47;;;14.00;96.30;;;;;;4876675;29;20217;-78
2022/11/02 11:07:13;;;;;;;5.70;1.70;;;13.80;96.30;;;;;;4883291;29;20437;-78
2022/11/02 11:09:49;;;;;;;3.13;1.30;;;14.00;96.30;;;;;;4899603;29;20394;-78
2022/11/02 11:12:29;;;;;;;4.27;1.50;;;13.70;96.30;;;;;;4898132;29;20444;-78
2022/11/02 11:14:57;;;;;;;5.87;1.50;;;13.40;96.30;;;;;;4899482;29;20500;-78
2022/11/02 11:17:31;;;;;;;3.80;1.70;;;13.40;96.30;;;;;;4900280;29;20934;-77
2022/11/02 11:19:57;;;;;;;6.17;1.53;;;13.70;96.30;;;;;;4901335;29;20461;-77
2022/11/02 11:22:25;;;;;;;5.47;1.17;;;13.70;96.30;;;;;;4888515;29;20454;-77
2022/11/02 11:24:50;;;;;;;5.97;1.33;;;13.70;96.30;;;;;;4883738;29;20982;-77
2022/11/02 11:27:18;;;;;;;7.30;2.63;;;13.50;96.30;;;;;;4881521;29;20482;-76
2022/11/02 11:29:53;;;;;;;5.67;1.10;;;13.30;96.30;;;;;;4880518;29;20186;-76
2022/11/02 11:32:25;;;;;;;4.33;1.70;;;13.10;96.30;;;;;;4880189;29;20433;-76
2022/11/02 11:35:16;;;;;;;3.03;1.23;;;13.00;96.30;;;;;;4879009;29;20425;-77
2022/11/02 11:37:48;;;;;;;4.00;1.27;;;13.10;96.30;;;;;;4879465;29;20501;-78
2022/11/02 11:40:20;;;;;;;5.17;1.33;;;13.10;96.30;;;;;;4880013;29;20474;-77
2022/11/02 11:42:48;;;;;;;4.70;1.30;;;13.00;96.30;;;;;;4880240;29;20915;-76
2022/11/02 11:45:24;;;;;;;7.93;1.50;;;12.90;96.30;;;;;;4879949;29;20466;-77
2022/11/02 11:47:53;;;;;;;6.37;1.63;;;12.90;96.30;;;;;;4898260;29;20482;-77
2022/11/02 11:50:19;;;;;;;9.07;1.60;;;12.70;96.30;;;;;;4898625;29;20408;-77
2022/11/02 11:52:44;;;;;;;9.40;1.77;;;12.80;96.30;;;;;;4898621;29;20416;-79
2022/11/02 11:55:24;;;;;;;9.00;1.40;;;12.90;96.30;;;;;;4898533;29;20181;-77
2022/11/02 11:58:20;;;;;;;5.03;1.20;;;12.70;96.30;;;;;;4898054;29;20783;-76
2022/11/02 12:01:02;;;;;;;12.27;1.40;;;12.60;96.30;;;;;;4898509;29;20579;-78
2022/11/02 12:03:28;;;;;;;4.90;1.03;;;12.50;96.30;;;;;;4898377;29;20437;-77
2022/11/02 12:06:12;;;;;;;6.00;1.40;;;12.40;96.30;;;;;;4898454;29;20517;-77
2022/11/02 12:08:59;;;;;;;6.30;1.00;;;12.30;96.30;;;;;;4897812;29;20154;-78
2022/11/02 12:11:49;;;;;;;7.03;1.80;;;12.20;96.30;;;;;;4896930;29;20455;-77
2022/11/02 12:14:38;;;;;;;1.53;0.90;;;12.10;96.30;;;;;;4896988;29;20813;-77
2022/11/02 12:17:12;;;;;;;5.57;1.50;;;12.40;96.30;;;;;;4897636;29;20440;-78
2022/11/02 12:19:38;;;;;;;8.20;1.60;;;;;;;;;;4898126;29;20420;-78
2022/11/02 12:22:18;;;;;;;8.43;1.83;;;13.10;96.30;;;;;;4898031;29;20429;-77
2022/11/02 12:25:26;;;;;;;6.87;1.57;;;13.40;96.30;;;;;;4887061;29;20634;-78
2022/11/02 12:28:13;;;;;;;6.93;1.50;;;13.70;96.30;;;;;;4878737;29;20461;-78
2022/11/02 12:30:54;;;;;;;10.37;1.80;;;14.00;96.30;;;;;;4878019;29;20437;-77
2022/11/02 12:33:43;;;;;;;5.70;1.47;;;13.50;96.30;;;;;;4879245;29;20413;-78
2022/11/02 12:36:45;;;;;;;6.17;1.20;;;12.90;96.30;;;;;;4859335;29;20501;-77
2022/11/02 12:39:19;;;;;;;7.13;1.30;;;12.60;96.30;;;;;;4879136;29;20406;-78
2022/11/02 12:42:03;;;;;;;6.63;1.40;;;12.80;96.30;;;;;;4879019;29;20470;-78
2022/11/02 12:44:45;;;;;;;5.43;1.53;;;12.90;96.30;;;;;;4879175;29;20450;-76
2022/11/02 12:47:35;;;;;;;7.43;1.70;;;12.90;96.30;;;;;;4878664;29;20434;-78
2022/11/02 12:50:04;;;;;;;4.60;1.50;;;12.90;96.30;;;;;;4878609;29;20510;-78
2022/11/02 12:52:42;;;;;;;5.57;1.20;;;12.80;96.30;;;;;;4877734;29;20494;-77
2022/11/02 12:55:14;;;;;;;5.47;1.37;;;;;;;;;;4884118;29;20410;-79
2022/11/02 12:57:39;;;;;;;3.83;1.10;;;12.50;96.30;;;;;;4902955;29;20410;-79
2022/11/02 13:00:07;;;;;;;2.40;1.23;;;;;;;;;;4903515;29;20421;-79
2022/11/02 13:02:53;;;;;;;7.57;2.27;;;12.20;96.30;;;;;;4903757;29;20271;-78
2022/11/02 13:05:23;;;;;;;4.20;1.40;;;12.10;96.30;;;;;;4893836;29;20458;-76
2022/11/02 13:08:10;;;;;;;4.43;1.10;;;12.00;96.30;;;;;;4878804;29;20879;-77
2022/11/02 13:10:57;;;;;;;2.73;1.00;;;11.90;96.30;;;;;;4877600;29;20461;-76
2022/11/02 13:13:54;;;;;;;3.40;1.20;;;12.10;96.30;;;;;;4877496;29;20501;-77
2022/11/02 13:16:32;;;;;;;4.83;1.53;;;12.00;96.30;;;;;;4878755;29;20430;-77
2022/11/02 13:18:59;;;;;;;4.30;1.00;;;12.10;96.30;;;;;;4878277;29;20501;-76
2022/11/02 13:21:35;;;;;;;3.67;1.20;;;12.20;96.30;;;;;;4878578;29;20498;-76
2022/11/02 13:24:01;;;;;;;5.63;1.33;;;12.60;96.30;;;;;;4877426;29;20480;-77
2022/11/02 13:26:32;;;;;;;5.47;1.37;;;13.00;96.30;;;;;;4877389;29;20418;-77
2022/11/02 13:29:10;;;;;;;4.80;1.77;;;13.50;96.30;;;;;;4878104;29;20413;-77
2022/11/02 13:31:43;;;;;;;4.63;1.27;;;;;;;;;;4878337;29;21314;-76
2022/11/02 13:34:14;;;;;;;8.60;1.60;;;13.90;96.30;;;;;;4878425;29;20547;-76
2022/11/02 13:36:41;;;;;;;5.73;1.63;;;14.10;96.30;;;;;;4878056;29;20421;-77
2022/11/02 13:39:24;;;;;;;4.30;1.10;;;14.60;96.30;;;;;;4876756;29;20430;-76
2022/11/02 13:42:16;;;;;;;1.97;1.03;;;14.60;96.30;;;;;;4878447;29;20586;-76
2022/11/02 13:44:59;;;;;;;4.17;0.90;;;14.50;96.30;;;;;;4878234;29;20466;-77
2022/11/02 13:47:50;;;;;;;8.30;1.27;;;14.60;96.30;;;;;;4877140;29;20884;-77
2022/11/02 13:50:19;;;;;;;6.40;1.77;;;14.60;96.30;;;;;;4877057;29;20425;-78
2022/11/02 13:53:04;;;;;;;6.50;1.60;;;14.70;96.30;;;;;;4878293;29;20843;-77
2022/11/02 13:55:54;;;;;;;5.10;1.47;;;14.80;96.30;;;;;;4878503;29;20807;-78
2022/11/02 13:58:49;;;;;;;1.73;1.00;;;14.60;96.30;;;;;;4877662;29;20420;-76
2022/11/02 14:01:18;;;;;;;3.17;0.97;;;14.20;96.30;;;;;;4878669;29;20452;-77
2022/11/02 14:03:49;;;;;;;4.60;1.13;;;13.80;96.30;;;;;;4880539;29;20457;-76
2022/11/02 14:06:18;;;;;;;6.47;1.80;;;13.90;96.30;;;;;;4881807;29;20465;-78
2022/11/02 14:09:04;;;;;;;6.80;1.50;;;13.70;96.30;;;;;;4881183;29;20458;-76
2022/11/02 14:11:38;;;;;;;3.97;1.97;;;13.60;96.30;;;;;;4881943;29;20942;-76
2022/11/02 14:14:15;;;;;;;6.10;1.57;;;13.10;96.30;;;;;;4881841;29;20417;-76
2022/11/02 14:16:50;;;;;;;7.50;1.30;;;12.80;96.30;;;;;;4881615;29;20410;-77
2022/11/02 14:19:15;;;;;;;3.03;1.47;;;12.40;96.30;;;;;;4881608;29;20414;-78
2022/11/02 14:21:46;;;;;;;4.10;1.03;;;12.20;96.30;;;;;;4880302;29;20441;-77
2022/11/02 14:24:31;;;;;;;8.17;1.90;;;;;;;;;;4880069;29;20235;-76
2022/11/02 14:27:12;;;;;;;3.70;1.20;;;11.80;96.30;;;;;;4880943;29;20406;-76
2022/11/02 14:29:43;;;;;;;2.50;0.90;;;;;;;;;;4880501;29;20414;-76
2022/11/02 14:32:36;;;;;;;6.10;1.10;;;11.60;96.30;;;;;;4881466;29;20436;-75
2022/11/02 14:35:03;;;;;;;6.20;1.63;;;;;;;;;;4881332;29;20440;-76
2022/11/02 14:37:55;;;;;;;5.13;1.60;;;11.50;96.30;;;;;;4880716;29;20406;-76
2022/11/02 14:40:29;;;;;;;5.60;1.27;;;11.50;96.30;;;;;;4879878;29;20418;-76
2022/11/02 14:43:32;;;;;;;4.33;1.10;;;11.60;96.30;;;;;;4881208;29;20432;-76
2022/11/02 14:46:12;;;;;;;7.10;1.30;;;11.40;96.30;;;;;;4879911;29;20440;-76
2022/11/02 14:48:50;;;;;;;6.33;1.33;;;11.40;96.30;;;;;;4873427;29;20422;-77
2022/11/02 14:51:28;;;;;;;5.80;1.33;;;11.30;96.30;;;;;;4865518;29;20443;-78
2022/11/02 14:54:02;;;;;;;6.00;1.30;;;;;;;;;;4880948;29;20495;-77
2022/11/02 14:56:53;;;;;;;3.27;1.23;;;11.10;96.30;;;;;;4880934;29;20421;-77
2022/11/02 14:59:28;;;;;;;8.90;1.30;;;11.10;96.30;;;;;;4870455;29;20407;-77
2022/11/02 15:02:03;;;;;;;3.00;1.23;;;11.20;96.30;;;;;;4862093;29;20820;-77
2022/11/02 15:04:32;;;;;;;2.47;1.20;;;11.10;96.30;;;;;;4862236;29;20470;-78
2022/11/02 15:06:59;;;;;;;7.50;1.20;;;;;;;;;;4865462;29;20422;-77
2022/11/02 15:09:51;;;;;;;6.07;1.33;;;11.00;96.30;;;;;;4897437;29;20503;-77
2022/11/02 15:12:27;;;;;;;2.90;1.10;;;10.90;96.30;;;;;;4873137;29;20438;-77
2022/11/02 15:15:07;;;;;;;5.33;1.60;;;10.90;96.30;;;;;;4879995;29;20422;-76
2022/11/02 15:17:53;;;;;;;11.03;4.10;;;10.90;96.30;;;;;;4867720;29;20412;-76
2022/11/02 15:20:29;;;;;;;2.93;1.10;;;10.70;96.30;;;;;;4867060;29;20431;-77
2022/11/02 15:23:19;;;;;;;2.90;1.00;;;10.60;96.30;;;;;;4876453;29;20435;-77
2022/11/02 15:25:51;;;;;;;5.27;1.30;;;10.40;96.30;;;;;;4879835;29;20473;-76
2022/11/02 15:28:22;;;;;;;5.77;0.97;;;10.20;96.30;;;;;;4866814;29;20428;-76
2022/11/02 15:30:54;;;;;;;2.27;1.20;;;10.10;96.30;;;;;;4885910;29;20499;-76
2022/11/02 15:33:37;;;;;;;3.20;1.20;;;10.20;96.30;;;;;;4861667;29;20431;-78
2022/11/02 15:36:06;;;;;;;1.73;0.90;;;10.20;96.30;;;;;;4875823;29;20467;-77
2022/11/02 15:38:32;;;;;;;4.13;1.30;;;10.00;96.30;;;;;;4860924;29;20507;-78
2022/11/02 15:41:20;;;;;;;5.80;1.00;;;9.90;96.30;;;;;;4861517;29;20514;-76
2022/11/02 15:44:08;;;;;;;3.93;1.40;;;9.70;96.30;;;;;;4872142;29;20216;-76
2022/11/02 15:47:12;;;;;;;5.47;1.20;;;9.70;96.30;;;;;;4888839;29;20414;-77
2022/11/02 15:50:02;;;;;;;9.13;1.43;;;9.60;96.30;;;;;;4889663;29;20437;-76
2022/11/02 15:52:58;;;;;;;6.60;1.23;;;9.50;96.30;;;;;;4879819;29;20434;-76
2022/11/02 15:55:24;;;;;;;9.33;1.20;;;;;;;;;;4869835;29;20454;-76
2022/11/02 15:58:18;;;;;;;3.10;1.57;;;9.20;96.30;;;;;;4859468;29;20415;-76
2022/11/02 16:01:04;;;;;;;7.77;1.20;;;9.10;96.30;;;;;;4860135;29;20204;-76
2022/11/02 16:03:31;;;;;;;6.60;1.10;;;9.00;96.30;;;;;;4859965;29;20445;-76
2022/11/02 16:05:58;;;;;;;4.90;1.30;;;8.90;96.30;;;;;;4871896;29;20418;-76
2022/11/02 16:08:31;;;;;;;10.57;1.30;;;8.90;96.30;;;;;;4877755;29;20441;-77
2022/11/02 16:11:04;;;;;;;6.47;1.20;;;;;;;;;;4878404;29;20473;-77
2022/11/02 16:13:33;;;;;;;9.23;1.47;;;8.80;96.30;;;;;;4878082;29;20908;-78
2022/11/02 16:16:05;;;;;;;5.07;1.47;;;8.80;96.30;;;;;;4878998;29;20799;-78
2022/11/02 16:18:36;;;;;;;6.60;2.27;;;8.70;96.30;;;;;;4877844;29;20478;-78
2022/11/02 16:21:05;;;;;;;4.80;1.60;;;8.70;96.30;;;;;;4878069;29;20459;-77
2022/11/02 16:23:39;;;;;;;5.03;1.20;;;8.60;96.30;;;;;;4879255;29;20434;-76
2022/11/02 16:26:08;;;;;;;3.73;1.20;;;8.40;96.30;;;;;;4878451;29;20802;-77
2022/11/02 16:28:35;;;;;;;4.80;1.20;;;8.30;96.30;;;;;;4877924;29;20430;-79
2022/11/02 16:31:14;;;;;;;4.70;1.53;;;8.30;96.30;;;;;;4875162;29;20447;-77
2022/11/02 16:33:54;;;;;;;6.03;2.27;;;8.20;96.30;;;;;;4875050;29;20778;-78
2022/11/02 16:36:26;;;;;;;10.03;1.80;;;8.20;96.30;;;;;;4874527;29;20433;-78
2022/11/02 16:39:05;;;;;;;13.07;6.90;;;8.10;96.30;;;;;;4860216;29;20415;-78
2022/11/02 16:41:35;;;;;;;3.80;1.40;;;8.10;96.30;;;;;;4860746;29;20517;-78
2022/11/02 16:44:08;;;;;;;8.47;3.67;;;8.10;96.30;;;;;;4859290;29;20471;-78
2022/11/02 16:46:51;;;;;;;4.80;2.93;;;8.10;96.30;;;;;;4860647;29;20471;-78
2022/11/02 16:49:24;;;;;;;3.33;1.53;;;8.40;96.30;;;;;;4860374;29;20407;-79
2022/11/02 16:51:57;;;;;;;2.90;1.40;;;8.60;96.30;;;;;;4860604;29;20958;-78
2022/11/02 16:54:33;;;;;;;3.70;2.50;;;8.50;96.30;;;;;;4859296;29;20462;-79
2022/11/02 16:57:04;;;;;;;3.10;1.40;;;8.50;96.30;;;;;;4859902;29;20407;-77
2022/11/02 16:59:30;;;;;;;4.60;1.33;;;8.60;96.30;;;;;;4861007;29;20486;-78
2022/11/02 17:02:00;;;;;;;4.00;1.63;;;8.50;96.30;;;;;;4859239;29;20474;-78
2022/11/02 17:04:29;;;;;;;4.53;1.37;;;8.50;96.30;;;;;;4858903;29;20213;-77
2022/11/02 17:07:06;;;;;;;4.70;1.90;;;8.60;96.30;;;;;;4859685;29;20423;-77
2022/11/02 17:09:32;;;;;;;3.87;2.43;;;8.70;96.30;;;;;;4860101;29;20413;-77
2022/11/02 17:12:14;;;;;;;6.17;1.90;;;;;;;;;;4860253;29;20477;-77
2022/11/02 17:14:45;;;;;;;6.03;1.83;;;8.60;96.30;;;;;;4859010;29;20427;-77
2022/11/02 17:17:23;;;;;;;4.30;1.60;;;8.50;96.30;;;;;;4859711;29;20414;-77
2022/11/02 17:20:04;;;;;;;6.97;1.80;;;8.50;96.30;;;;;;4860110;29;20414;-78
2022/11/02 17:22:29;;;;;;;3.07;1.50;;;;;;;;;;4859007;29;20982;-78
2022/11/02 17:25:23;;;;;;;6.20;2.27;;;8.50;96.30;;;;;;4875997;29;20474;-79
2022/11/02 17:27:49;;;;;;;7.97;2.60;;;;;;;;;;4886139;29;20193;-78
2022/11/02 17:30:33;;;;;;;26.20;13.63;;;8.40;96.30;;;;;;4882522;29;20406;-77
2022/11/02 17:33:26;;;;;;;29.27;18.00;;;8.20;96.30;;;;;;4891941;29;20942;-77
2022/11/02 17:35:54;;;;;;;13.90;5.80;;;8.10;96.30;;;;;;4859513;29;20415;-79
2022/11/02 17:38:25;;;;;;;20.10;8.27;;;8.10;96.30;;;;;;4875501;29;20421;-77
2022/11/02 17:40:51;;;;;;;12.40;7.07;;;8.20;96.30;;;;;;4895746;29;20448;-77
2022/11/02 17:43:21;;;;;;;9.60;4.07;;;8.20;96.30;;;;;;4895825;29;20421;-77
2022/11/02 17:45:55;;;;;;;11.77;6.77;;;;;;;;;;4896936;29;20467;-77
2022/11/02 17:48:20;;;;;;;18.90;8.50;;;8.10;96.30;;;;;;4896156;29;20420;-76
2022/11/02 17:50:46;;;;;;;11.90;7.17;;;8.00;96.30;;;;;;4896836;29;20433;-76
2022/11/02 17:53:15;;;;;;;3.93;2.37;;;;;;;;;;4896949;29;20181;-76
2022/11/02 17:55:40;;;;;;;8.47;3.20;;;7.90;96.30;;;;;;4879415;29;21009;-78
2022/11/02 17:58:06;;;;;;;4.47;1.70;;;7.80;96.30;;;;;;4858171;29;20427;-77
2022/11/02 18:00:34;;;;;;;2.23;1.30;;;7.80;96.30;;;;;;4859724;29;20335;-78
2022/11/02 18:03:00;;;;;;;7.90;1.47;;;7.80;96.30;;;;;;4858732;29;20178;-77
2022/11/02 18:05:28;;;;;;;3.23;1.20;;;7.80;96.30;;;;;;4858363;29;20465;-77
2022/11/02 18:07:55;;;;;;;6.27;1.80;;;;;;;;;;4859144;29;20418;-78
2022/11/02 18:10:23;;;;;;;12.90;3.07;;;7.70;96.30;;;;;;4859548;29;20408;-77
2022/11/02 18:12:50;;;;;;;6.63;1.77;;;7.60;96.30;;;;;;4858505;29;20419;-77
2022/11/02 18:15:19;;;;;;;13.73;4.93;;;7.60;96.30;;;;;;4859660;29;20514;-78
2022/11/02 18:17:45;;;;;;;53.63;28.07;;;7.50;96.30;;;;;;4857807;29;20998;-77
2022/11/02 18:20:12;;;;;;;26.77;12.63;;;7.50;96.30;;;;;;4859626;29;20514;-76
2022/11/02 18:22:38;;;;;;;10.07;3.60;;;7.50;96.30;;;;;;4846009;29;20654;-79